sensor_id;sensor_type;location;lat;lon;timestamp;temperature;humidity
16315;DHT22;8266;52.150;4.768;2024-01-30T00:00:30;10.20;99.90
16315;DHT22;8266;52.150;4.768;2024-01-30T00:02:59;10.20;99.90
16315;DHT22;8266;52.150;4.768;2024-01-30T00:05:26;10.20;99.90
16315;DHT22;8266;52.150;4.768;2024-01-30T00:07:53;10.20;99.90
16315;DHT22;8266;52.150;4.768;2024-01-30T00:10:20;10.20;99.90
16315;DHT22;8266;52.150;4.768;2024-01-30T00:12:47;10.20;99.90
16315;DHT22;8266;52.150;4.768;2024-01-30T00:15:14;10.20;99.90
16315;DHT22;8266;52.150;4.768;2024-01-30T00:17:42;10.20;99.90
16315;DHT22;8266;52.150;4.768;2024-01-30T00:20:10;10.30;99.90
16315;DHT22;8266;52.150;4.768;2024-01-30T00:22:37;10.30;99.90
16315;DHT22;8266;52.150;4.768;2024-01-30T00:25:05;10.30;99.90
16315;DHT22;8266;52.150;4.768;2024-01-30T00:27:32;10.30;99.90
16315;DHT22;8266;52.150;4.768;2024-01-30T00:29:59;10.30;99.90
16315;DHT22;8266;52.150;4.768;2024-01-30T00:32:26;10.30;99.90
16315;DHT22;8266;52.150;4.768;2024-01-30T00:34:53;10.40;99.90
16315;DHT22;8266;52.150;4.768;2024-01-30T00:37:24;10.30;99.90
16315;DHT22;8266;52.150;4.768;2024-01-30T00:39:52;10.40;99.90
16315;DHT22;8266;52.150;4.768;2024-01-30T00:42:19;10.40;99.90
16315;DHT22;8266;52.150;4.768;2024-01-30T00:44:46;10.40;99.90
16315;DHT22;8266;52.150;4.768;2024-01-30T00:47:14;10.40;99.90
16315;DHT22;8266;52.150;4.768;2024-01-30T00:49:40;10.40;99.90
16315;DHT22;8266;52.150;4.768;2024-01-30T00:52:07;10.40;99.90
16315;DHT22;8266;52.150;4.768;2024-01-30T00:54:36;10.40;99.90
16315;DHT22;8266;52.150;4.768;2024-01-30T00:57:03;10.40;99.90
16315;DHT22;8266;52.150;4.768;2024-01-30T00:59:30;10.40;99.90
16315;DHT22;8266;52.150;4.768;2024-01-30T01:01:57;10.40;99.90
16315;DHT22;8266;52.150;4.768;2024-01-30T01:04:25;10.40;99.90
16315;DHT22;8266;52.150;4.768;2024-01-30T01:06:52;10.40;99.90
16315;DHT22;8266;52.150;4.768;2024-01-30T01:09:19;10.40;99.90
16315;DHT22;8266;52.150;4.768;2024-01-30T01:11:47;10.40;99.90
16315;DHT22;8266;52.150;4.768;2024-01-30T01:14:15;10.50;99.90
16315;DHT22;8266;52.150;4.768;2024-01-30T01:16:42;10.50;99.90
16315;DHT22;8266;52.150;4.768;2024-01-30T01:19:09;10.50;99.90
16315;DHT22;8266;52.150;4.768;2024-01-30T01:21:36;10.50;99.90
16315;DHT22;8266;52.150;4.768;2024-01-30T01:24:03;10.40;99.90
16315;DHT22;8266;52.150;4.768;2024-01-30T01:26:31;10.50;99.90
16315;DHT22;8266;52.150;4.768;2024-01-30T01:28:59;10.50;99.90
16315;DHT22;8266;52.150;4.768;2024-01-30T01:31:26;10.50;99.90
16315;DHT22;8266;52.150;4.768;2024-01-30T01:33:55;10.50;99.90
16315;DHT22;8266;52.150;4.768;2024-01-30T01:36:22;10.50;99.90
16315;DHT22;8266;52.150;4.768;2024-01-30T01:38:49;10.50;99.90
16315;DHT22;8266;52.150;4.768;2024-01-30T01:41:16;10.60;99.90
16315;DHT22;8266;52.150;4.768;2024-01-30T01:43:43;10.50;99.90
16315;DHT22;8266;52.150;4.768;2024-01-30T01:46:12;10.50;99.90
16315;DHT22;8266;52.150;4.768;2024-01-30T01:48:39;10.50;99.90
16315;DHT22;8266;52.150;4.768;2024-01-30T01:51:08;10.50;99.90
16315;DHT22;8266;52.150;4.768;2024-01-30T01:53:36;10.50;99.90
16315;DHT22;8266;52.150;4.768;2024-01-30T01:56:04;10.50;99.90
16315;DHT22;8266;52.150;4.768;2024-01-30T01:58:31;10.50;99.90
16315;DHT22;8266;52.150;4.768;2024-01-30T02:00:59;10.40;99.90
16315;DHT22;8266;52.150;4.768;2024-01-30T02:03:28;10.40;99.90
16315;DHT22;8266;52.150;4.768;2024-01-30T02:05:56;10.40;99.90
16315;DHT22;8266;52.150;4.768;2024-01-30T02:08:23;10.40;99.90
16315;DHT22;8266;52.150;4.768;2024-01-30T02:10:51;10.40;99.90
16315;DHT22;8266;52.150;4.768;2024-01-30T02:13:20;10.30;99.90
16315;DHT22;8266;52.150;4.768;2024-01-30T02:15:49;10.30;99.90
16315;DHT22;8266;52.150;4.768;2024-01-30T02:18:18;10.30;99.90
16315;DHT22;8266;52.150;4.768;2024-01-30T02:20:47;10.30;99.90
16315;DHT22;8266;52.150;4.768;2024-01-30T02:23:16;10.30;99.90
16315;DHT22;8266;52.150;4.768;2024-01-30T02:25:43;10.30;99.90
16315;DHT22;8266;52.150;4.768;2024-01-30T02:28:11;10.30;99.90
16315;DHT22;8266;52.150;4.768;2024-01-30T02:30:38;10.30;99.90
16315;DHT22;8266;52.150;4.768;2024-01-30T02:33:06;10.30;99.90
16315;DHT22;8266;52.150;4.768;2024-01-30T02:35:33;10.30;99.90
16315;DHT22;8266;52.150;4.768;2024-01-30T02:38:01;10.30;99.90
16315;DHT22;8266;52.150;4.768;2024-01-30T02:40:29;10.30;99.90
16315;DHT22;8266;52.150;4.768;2024-01-30T02:42:57;10.30;99.90
16315;DHT22;8266;52.150;4.768;2024-01-30T02:45:24;10.30;99.90
16315;DHT22;8266;52.150;4.768;2024-01-30T02:47:52;10.30;99.90
16315;DHT22;8266;52.150;4.768;2024-01-30T02:50:19;10.30;99.90
16315;DHT22;8266;52.150;4.768;2024-01-30T02:52:47;10.30;99.90
16315;DHT22;8266;52.150;4.768;2024-01-30T02:55:14;10.30;99.90
16315;DHT22;8266;52.150;4.768;2024-01-30T02:57:44;10.30;99.90
16315;DHT22;8266;52.150;4.768;2024-01-30T03:00:12;10.30;99.90
16315;DHT22;8266;52.150;4.768;2024-01-30T03:02:39;10.30;99.90
16315;DHT22;8266;52.150;4.768;2024-01-30T03:05:08;10.30;99.90
16315;DHT22;8266;52.150;4.768;2024-01-30T03:07:35;10.30;99.90
16315;DHT22;8266;52.150;4.768;2024-01-30T03:10:04;10.30;99.90
16315;DHT22;8266;52.150;4.768;2024-01-30T03:12:31;10.30;99.90
16315;DHT22;8266;52.150;4.768;2024-01-30T03:14:59;10.30;99.90
16315;DHT22;8266;52.150;4.768;2024-01-30T03:17:27;10.30;99.90
16315;DHT22;8266;52.150;4.768;2024-01-30T03:19:54;10.30;99.90
16315;DHT22;8266;52.150;4.768;2024-01-30T03:22:21;10.30;99.90
16315;DHT22;8266;52.150;4.768;2024-01-30T03:24:48;10.30;99.90
16315;DHT22;8266;52.150;4.768;2024-01-30T03:27:15;10.30;99.90
16315;DHT22;8266;52.150;4.768;2024-01-30T03:29:42;10.30;99.90
16315;DHT22;8266;52.150;4.768;2024-01-30T03:32:11;10.30;99.90
16315;DHT22;8266;52.150;4.768;2024-01-30T03:34:38;10.30;99.90
16315;DHT22;8266;52.150;4.768;2024-01-30T03:37:06;10.30;99.90
16315;DHT22;8266;52.150;4.768;2024-01-30T03:39:33;10.30;99.90
16315;DHT22;8266;52.150;4.768;2024-01-30T03:42:00;10.30;99.90
16315;DHT22;8266;52.150;4.768;2024-01-30T03:44:27;10.30;99.90
16315;DHT22;8266;52.150;4.768;2024-01-30T03:46:54;10.30;99.90
16315;DHT22;8266;52.150;4.768;2024-01-30T03:49:24;10.30;99.90
16315;DHT22;8266;52.150;4.768;2024-01-30T03:51:51;10.30;99.90
16315;DHT22;8266;52.150;4.768;2024-01-30T03:54:18;10.30;99.90
16315;DHT22;8266;52.150;4.768;2024-01-30T03:56:45;10.30;99.90
16315;DHT22;8266;52.150;4.768;2024-01-30T03:59:12;10.30;99.90
16315;DHT22;8266;52.150;4.768;2024-01-30T04:01:39;10.40;99.90
16315;DHT22;8266;52.150;4.768;2024-01-30T04:04:06;10.40;99.90
16315;DHT22;8266;52.150;4.768;2024-01-30T04:06:34;10.40;99.90
16315;DHT22;8266;52.150;4.768;2024-01-30T04:09:03;10.40;99.90
16315;DHT22;8266;52.150;4.768;2024-01-30T04:11:30;10.40;99.90
16315;DHT22;8266;52.150;4.768;2024-01-30T04:13:57;10.40;99.90
16315;DHT22;8266;52.150;4.768;2024-01-30T04:16:25;10.40;99.90
16315;DHT22;8266;52.150;4.768;2024-01-30T04:18:52;10.40;99.90
16315;DHT22;8266;52.150;4.768;2024-01-30T04:21:21;10.40;99.90
16315;DHT22;8266;52.150;4.768;2024-01-30T04:23:51;10.40;99.90
16315;DHT22;8266;52.150;4.768;2024-01-30T04:26:18;10.40;99.90
16315;DHT22;8266;52.150;4.768;2024-01-30T04:28:45;10.40;99.90
16315;DHT22;8266;52.150;4.768;2024-01-30T04:31:12;10.40;99.90
16315;DHT22;8266;52.150;4.768;2024-01-30T04:33:39;10.40;99.90
16315;DHT22;8266;52.150;4.768;2024-01-30T04:36:08;10.50;99.90
16315;DHT22;8266;52.150;4.768;2024-01-30T04:38:37;10.40;99.90
16315;DHT22;8266;52.150;4.768;2024-01-30T04:41:05;10.50;99.90
16315;DHT22;8266;52.150;4.768;2024-01-30T04:43:32;10.50;99.90
16315;DHT22;8266;52.150;4.768;2024-01-30T04:45:59;10.50;99.90
16315;DHT22;8266;52.150;4.768;2024-01-30T04:48:26;10.50;99.90
16315;DHT22;8266;52.150;4.768;2024-01-30T04:50:53;10.50;99.90
16315;DHT22;8266;52.150;4.768;2024-01-30T04:53:21;10.50;99.90
16315;DHT22;8266;52.150;4.768;2024-01-30T04:55:48;10.50;99.90
16315;DHT22;8266;52.150;4.768;2024-01-30T04:58:17;10.60;99.90
16315;DHT22;8266;52.150;4.768;2024-01-30T05:00:44;10.60;99.90
16315;DHT22;8266;52.150;4.768;2024-01-30T05:03:17;10.60;99.90
16315;DHT22;8266;52.150;4.768;2024-01-30T05:05:44;10.60;99.90
16315;DHT22;8266;52.150;4.768;2024-01-30T05:08:11;10.70;99.90
16315;DHT22;8266;52.150;4.768;2024-01-30T05:10:38;10.60;99.90
16315;DHT22;8266;52.150;4.768;2024-01-30T05:13:05;10.70;99.90
16315;DHT22;8266;52.150;4.768;2024-01-30T05:15:33;10.70;99.90
16315;DHT22;8266;52.150;4.768;2024-01-30T05:18:00;10.70;99.90
16315;DHT22;8266;52.150;4.768;2024-01-30T05:20:27;10.70;99.90
16315;DHT22;8266;52.150;4.768;2024-01-30T05:22:54;10.70;99.90
16315;DHT22;8266;52.150;4.768;2024-01-30T05:25:21;10.80;99.90
16315;DHT22;8266;52.150;4.768;2024-01-30T05:27:49;10.80;99.90
16315;DHT22;8266;52.150;4.768;2024-01-30T05:30:16;10.80;99.90
16315;DHT22;8266;52.150;4.768;2024-01-30T05:32:45;10.80;99.90
16315;DHT22;8266;52.150;4.768;2024-01-30T05:35:12;10.80;99.90
16315;DHT22;8266;52.150;4.768;2024-01-30T05:37:39;10.90;99.90
16315;DHT22;8266;52.150;4.768;2024-01-30T05:40:07;10.90;99.90
16315;DHT22;8266;52.150;4.768;2024-01-30T05:42:37;10.90;99.90
16315;DHT22;8266;52.150;4.768;2024-01-30T05:45:05;10.90;99.90
16315;DHT22;8266;52.150;4.768;2024-01-30T05:47:34;10.90;99.90
16315;DHT22;8266;52.150;4.768;2024-01-30T05:50:02;10.90;99.90
16315;DHT22;8266;52.150;4.768;2024-01-30T05:52:29;11.00;99.90
16315;DHT22;8266;52.150;4.768;2024-01-30T05:54:56;11.00;99.90
16315;DHT22;8266;52.150;4.768;2024-01-30T05:57:23;11.00;99.90
16315;DHT22;8266;52.150;4.768;2024-01-30T05:59:51;11.00;99.90
16315;DHT22;8266;52.150;4.768;2024-01-30T06:02:18;11.00;99.90
16315;DHT22;8266;52.150;4.768;2024-01-30T06:04:45;11.00;99.90
16315;DHT22;8266;52.150;4.768;2024-01-30T06:07:13;11.00;99.90
16315;DHT22;8266;52.150;4.768;2024-01-30T06:09:40;11.00;99.90
16315;DHT22;8266;52.150;4.768;2024-01-30T06:12:08;11.00;99.90
16315;DHT22;8266;52.150;4.768;2024-01-30T06:14:37;11.00;99.90
16315;DHT22;8266;52.150;4.768;2024-01-30T06:17:04;11.10;99.90
16315;DHT22;8266;52.150;4.768;2024-01-30T06:19:31;11.10;99.90
16315;DHT22;8266;52.150;4.768;2024-01-30T06:21:58;11.10;99.90
16315;DHT22;8266;52.150;4.768;2024-01-30T06:24:27;11.10;99.90
16315;DHT22;8266;52.150;4.768;2024-01-30T06:26:54;11.10;99.90
16315;DHT22;8266;52.150;4.768;2024-01-30T06:29:21;11.10;99.90
16315;DHT22;8266;52.150;4.768;2024-01-30T06:31:50;11.10;99.90
16315;DHT22;8266;52.150;4.768;2024-01-30T06:34:17;11.10;99.90
16315;DHT22;8266;52.150;4.768;2024-01-30T06:36:44;11.20;99.90
16315;DHT22;8266;52.150;4.768;2024-01-30T06:39:11;11.20;99.90
16315;DHT22;8266;52.150;4.768;2024-01-30T06:41:40;11.20;99.90
16315;DHT22;8266;52.150;4.768;2024-01-30T06:44:07;11.20;99.90
16315;DHT22;8266;52.150;4.768;2024-01-30T06:46:34;11.20;99.90
16315;DHT22;8266;52.150;4.768;2024-01-30T06:49:01;11.30;99.90
16315;DHT22;8266;52.150;4.768;2024-01-30T06:51:28;11.30;99.90
16315;DHT22;8266;52.150;4.768;2024-01-30T06:53:55;11.30;99.90
16315;DHT22;8266;52.150;4.768;2024-01-30T06:56:22;11.30;99.90
16315;DHT22;8266;52.150;4.768;2024-01-30T06:58:51;11.30;99.90
16315;DHT22;8266;52.150;4.768;2024-01-30T07:01:18;11.30;99.90
16315;DHT22;8266;52.150;4.768;2024-01-30T07:03:46;11.30;99.90
16315;DHT22;8266;52.150;4.768;2024-01-30T07:06:14;11.30;99.90
16315;DHT22;8266;52.150;4.768;2024-01-30T07:08:41;11.40;99.90
16315;DHT22;8266;52.150;4.768;2024-01-30T07:11:08;11.40;99.90
16315;DHT22;8266;52.150;4.768;2024-01-30T07:13:35;11.40;99.90
16315;DHT22;8266;52.150;4.768;2024-01-30T07:16:04;11.40;99.90
16315;DHT22;8266;52.150;4.768;2024-01-30T07:18:31;11.40;99.90
16315;DHT22;8266;52.150;4.768;2024-01-30T07:20:58;11.40;99.90
16315;DHT22;8266;52.150;4.768;2024-01-30T07:23:25;11.50;99.90
16315;DHT22;8266;52.150;4.768;2024-01-30T07:25:53;11.50;99.90
16315;DHT22;8266;52.150;4.768;2024-01-30T07:28:20;11.50;99.90
16315;DHT22;8266;52.150;4.768;2024-01-30T07:30:47;11.50;99.90
16315;DHT22;8266;52.150;4.768;2024-01-30T07:33:17;11.50;99.90
16315;DHT22;8266;52.150;4.768;2024-01-30T07:35:45;11.60;99.90
16315;DHT22;8266;52.150;4.768;2024-01-30T07:38:12;11.60;99.90
16315;DHT22;8266;52.150;4.768;2024-01-30T07:40:39;11.60;99.90
16315;DHT22;8266;52.150;4.768;2024-01-30T07:43:06;11.60;99.90
16315;DHT22;8266;52.150;4.768;2024-01-30T07:45:33;11.70;99.90
16315;DHT22;8266;52.150;4.768;2024-01-30T07:48:01;11.70;99.90
16315;DHT22;8266;52.150;4.768;2024-01-30T07:50:29;11.70;99.90
16315;DHT22;8266;52.150;4.768;2024-01-30T07:52:56;11.70;99.90
16315;DHT22;8266;52.150;4.768;2024-01-30T07:55:23;11.80;99.90
16315;DHT22;8266;52.150;4.768;2024-01-30T07:57:53;11.80;99.90
16315;DHT22;8266;52.150;4.768;2024-01-30T08:00:21;11.90;99.90
16315;DHT22;8266;52.150;4.768;2024-01-30T08:02:48;11.90;99.90
16315;DHT22;8266;52.150;4.768;2024-01-30T08:05:15;11.90;99.90
16315;DHT22;8266;52.150;4.768;2024-01-30T08:07:43;12.00;99.90
16315;DHT22;8266;52.150;4.768;2024-01-30T08:10:12;12.00;99.90
16315;DHT22;8266;52.150;4.768;2024-01-30T08:12:39;12.10;99.90
16315;DHT22;8266;52.150;4.768;2024-01-30T08:15:07;12.10;99.90
16315;DHT22;8266;52.150;4.768;2024-01-30T08:17:34;12.20;99.90
16315;DHT22;8266;52.150;4.768;2024-01-30T08:20:01;12.20;99.90
16315;DHT22;8266;52.150;4.768;2024-01-30T08:22:30;12.20;99.90
16315;DHT22;8266;52.150;4.768;2024-01-30T08:24:58;12.30;99.90
16315;DHT22;8266;52.150;4.768;2024-01-30T08:27:25;12.30;99.90
16315;DHT22;8266;52.150;4.768;2024-01-30T08:29:52;12.40;99.90
16315;DHT22;8266;52.150;4.768;2024-01-30T08:32:19;12.40;99.90
16315;DHT22;8266;52.150;4.768;2024-01-30T08:34:46;12.40;99.90
16315;DHT22;8266;52.150;4.768;2024-01-30T08:37:13;12.50;99.90
16315;DHT22;8266;52.150;4.768;2024-01-30T08:39:42;12.50;99.90
16315;DHT22;8266;52.150;4.768;2024-01-30T08:42:10;12.60;99.90
16315;DHT22;8266;52.150;4.768;2024-01-30T08:44:37;12.60;99.90
16315;DHT22;8266;52.150;4.768;2024-01-30T08:47:05;12.60;99.90
16315;DHT22;8266;52.150;4.768;2024-01-30T08:49:32;12.70;99.90
16315;DHT22;8266;52.150;4.768;2024-01-30T08:52:00;12.70;99.90
16315;DHT22;8266;52.150;4.768;2024-01-30T08:54:26;12.70;99.90
16315;DHT22;8266;52.150;4.768;2024-01-30T08:56:54;12.80;99.90
16315;DHT22;8266;52.150;4.768;2024-01-30T08:59:23;12.80;99.90
16315;DHT22;8266;52.150;4.768;2024-01-30T09:01:50;12.80;99.90
16315;DHT22;8266;52.150;4.768;2024-01-30T09:04:19;12.90;99.90
16315;DHT22;8266;52.150;4.768;2024-01-30T09:06:47;12.90;99.90
16315;DHT22;8266;52.150;4.768;2024-01-30T09:09:14;13.00;99.90
16315;DHT22;8266;52.150;4.768;2024-01-30T09:11:42;13.00;99.90
16315;DHT22;8266;52.150;4.768;2024-01-30T09:14:09;13.00;99.90
16315;DHT22;8266;52.150;4.768;2024-01-30T09:16:37;13.10;99.90
16315;DHT22;8266;52.150;4.768;2024-01-30T09:19:04;13.10;99.90
16315;DHT22;8266;52.150;4.768;2024-01-30T09:21:31;13.10;99.90
16315;DHT22;8266;52.150;4.768;2024-01-30T09:24:02;13.20;99.90
16315;DHT22;8266;52.150;4.768;2024-01-30T09:26:29;13.20;99.90
16315;DHT22;8266;52.150;4.768;2024-01-30T09:28:56;13.20;99.90
16315;DHT22;8266;52.150;4.768;2024-01-30T09:31:23;13.30;99.90
16315;DHT22;8266;52.150;4.768;2024-01-30T09:33:52;13.30;99.90
16315;DHT22;8266;52.150;4.768;2024-01-30T09:36:20;13.30;99.90
16315;DHT22;8266;52.150;4.768;2024-01-30T09:38:48;13.30;99.90
16315;DHT22;8266;52.150;4.768;2024-01-30T09:41:15;13.30;99.90
16315;DHT22;8266;52.150;4.768;2024-01-30T09:43:47;13.40;99.90
16315;DHT22;8266;52.150;4.768;2024-01-30T09:46:17;13.40;99.90
16315;DHT22;8266;52.150;4.768;2024-01-30T09:48:46;13.40;99.90
16315;DHT22;8266;52.150;4.768;2024-01-30T09:51:15;13.40;99.90
16315;DHT22;8266;52.150;4.768;2024-01-30T09:53:43;13.40;99.90
16315;DHT22;8266;52.150;4.768;2024-01-30T09:56:10;13.40;99.90
16315;DHT22;8266;52.150;4.768;2024-01-30T09:58:39;13.40;99.90
16315;DHT22;8266;52.150;4.768;2024-01-30T10:01:06;13.40;99.90
16315;DHT22;8266;52.150;4.768;2024-01-30T10:03:33;13.40;99.90
16315;DHT22;8266;52.150;4.768;2024-01-30T10:06:01;13.40;99.90
16315;DHT22;8266;52.150;4.768;2024-01-30T10:08:30;13.50;99.90
16315;DHT22;8266;52.150;4.768;2024-01-30T10:10:57;13.40;99.90
16315;DHT22;8266;52.150;4.768;2024-01-30T10:13:24;13.40;99.90
16315;DHT22;8266;52.150;4.768;2024-01-30T10:15:53;13.40;99.90
16315;DHT22;8266;52.150;4.768;2024-01-30T10:18:22;13.40;99.90
16315;DHT22;8266;52.150;4.768;2024-01-30T10:20:49;13.40;99.90
16315;DHT22;8266;52.150;4.768;2024-01-30T10:23:17;13.40;99.90
16315;DHT22;8266;52.150;4.768;2024-01-30T10:25:46;13.40;99.90
16315;DHT22;8266;52.150;4.768;2024-01-30T10:28:13;13.40;99.90
16315;DHT22;8266;52.150;4.768;2024-01-30T10:30:40;13.40;99.90
16315;DHT22;8266;52.150;4.768;2024-01-30T10:33:07;13.40;99.90
16315;DHT22;8266;52.150;4.768;2024-01-30T10:35:35;13.40;99.90
16315;DHT22;8266;52.150;4.768;2024-01-30T10:38:02;13.40;99.90
16315;DHT22;8266;52.150;4.768;2024-01-30T10:40:31;13.30;99.90
16315;DHT22;8266;52.150;4.768;2024-01-30T10:43:02;13.30;99.90
16315;DHT22;8266;52.150;4.768;2024-01-30T10:45:30;13.30;99.90
16315;DHT22;8266;52.150;4.768;2024-01-30T10:47:59;13.30;99.90
16315;DHT22;8266;52.150;4.768;2024-01-30T10:50:26;13.30;99.90
16315;DHT22;8266;52.150;4.768;2024-01-30T10:52:55;13.20;99.90
16315;DHT22;8266;52.150;4.768;2024-01-30T10:55:22;13.20;99.90
16315;DHT22;8266;52.150;4.768;2024-01-30T10:57:50;13.20;99.90
16315;DHT22;8266;52.150;4.768;2024-01-30T11:00:19;13.10;99.90
16315;DHT22;8266;52.150;4.768;2024-01-30T11:02:50;13.10;99.90
16315;DHT22;8266;52.150;4.768;2024-01-30T11:05:24;13.00;99.90
16315;DHT22;8266;52.150;4.768;2024-01-30T11:07:52;13.00;99.90
16315;DHT22;8266;52.150;4.768;2024-01-30T11:10:19;13.00;99.90
16315;DHT22;8266;52.150;4.768;2024-01-30T11:12:46;13.00;99.90
16315;DHT22;8266;52.150;4.768;2024-01-30T11:15:14;12.90;99.90
16315;DHT22;8266;52.150;4.768;2024-01-30T11:17:44;12.90;99.90
16315;DHT22;8266;52.150;4.768;2024-01-30T11:20:12;12.90;99.90
16315;DHT22;8266;52.150;4.768;2024-01-30T11:22:42;12.80;99.90
16315;DHT22;8266;52.150;4.768;2024-01-30T11:25:14;12.80;99.90
16315;DHT22;8266;52.150;4.768;2024-01-30T11:27:42;12.80;99.90
16315;DHT22;8266;52.150;4.768;2024-01-30T11:30:10;12.80;99.90
16315;DHT22;8266;52.150;4.768;2024-01-30T11:32:37;12.70;99.90
16315;DHT22;8266;52.150;4.768;2024-01-30T11:35:06;12.80;99.90
16315;DHT22;8266;52.150;4.768;2024-01-30T11:37:37;12.70;99.90
16315;DHT22;8266;52.150;4.768;2024-01-30T11:40:06;12.70;99.90
16315;DHT22;8266;52.150;4.768;2024-01-30T11:42:34;12.70;99.90
16315;DHT22;8266;52.150;4.768;2024-01-30T11:45:05;12.60;99.90
16315;DHT22;8266;52.150;4.768;2024-01-30T11:47:35;12.60;99.90
16315;DHT22;8266;52.150;4.768;2024-01-30T11:50:03;12.50;99.90
16315;DHT22;8266;52.150;4.768;2024-01-30T11:52:33;12.50;99.90
16315;DHT22;8266;52.150;4.768;2024-01-30T11:55:00;12.40;99.90
16315;DHT22;8266;52.150;4.768;2024-01-30T11:57:28;12.40;99.90
16315;DHT22;8266;52.150;4.768;2024-01-30T11:59:56;12.40;99.90
16315;DHT22;8266;52.150;4.768;2024-01-30T12:02:23;12.40;99.90
16315;DHT22;8266;52.150;4.768;2024-01-30T12:04:50;12.40;99.90
16315;DHT22;8266;52.150;4.768;2024-01-30T12:07:17;12.50;99.90
16315;DHT22;8266;52.150;4.768;2024-01-30T12:09:53;12.40;99.90
16315;DHT22;8266;52.150;4.768;2024-01-30T12:12:22;12.50;99.90
16315;DHT22;8266;52.150;4.768;2024-01-30T12:14:50;12.50;99.90
16315;DHT22;8266;52.150;4.768;2024-01-30T12:17:24;12.60;99.90
16315;DHT22;8266;52.150;4.768;2024-01-30T12:19:51;12.60;99.90
16315;DHT22;8266;52.150;4.768;2024-01-30T12:22:29;12.70;99.90
16315;DHT22;8266;52.150;4.768;2024-01-30T12:24:57;12.70;99.90
16315;DHT22;8266;52.150;4.768;2024-01-30T12:27:24;12.60;99.90
16315;DHT22;8266;52.150;4.768;2024-01-30T12:29:56;12.60;99.90
16315;DHT22;8266;52.150;4.768;2024-01-30T12:32:23;12.60;99.90
16315;DHT22;8266;52.150;4.768;2024-01-30T12:34:54;12.60;99.90
16315;DHT22;8266;52.150;4.768;2024-01-30T12:37:21;12.60;99.90
16315;DHT22;8266;52.150;4.768;2024-01-30T12:39:51;12.50;99.90
16315;DHT22;8266;52.150;4.768;2024-01-30T12:42:21;12.50;99.90
16315;DHT22;8266;52.150;4.768;2024-01-30T12:44:48;12.50;99.90
16315;DHT22;8266;52.150;4.768;2024-01-30T12:47:15;12.50;99.90
16315;DHT22;8266;52.150;4.768;2024-01-30T12:49:43;12.50;99.90
16315;DHT22;8266;52.150;4.768;2024-01-30T12:52:10;12.50;99.90
16315;DHT22;8266;52.150;4.768;2024-01-30T12:54:38;12.40;99.90
16315;DHT22;8266;52.150;4.768;2024-01-30T12:57:05;12.40;99.90
16315;DHT22;8266;52.150;4.768;2024-01-30T12:59:33;12.40;99.90
16315;DHT22;8266;52.150;4.768;2024-01-30T13:02:01;12.40;99.90
16315;DHT22;8266;52.150;4.768;2024-01-30T13:04:29;12.40;99.90
16315;DHT22;8266;52.150;4.768;2024-01-30T13:06:56;12.30;99.90
16315;DHT22;8266;52.150;4.768;2024-01-30T13:09:23;12.30;99.90
16315;DHT22;8266;52.150;4.768;2024-01-30T13:11:51;12.30;99.90
16315;DHT22;8266;52.150;4.768;2024-01-30T13:14:18;12.20;99.90
16315;DHT22;8266;52.150;4.768;2024-01-30T13:16:47;12.20;99.90
16315;DHT22;8266;52.150;4.768;2024-01-30T13:19:14;12.20;99.90
16315;DHT22;8266;52.150;4.768;2024-01-30T13:21:41;12.10;99.90
16315;DHT22;8266;52.150;4.768;2024-01-30T13:24:09;12.10;99.90
16315;DHT22;8266;52.150;4.768;2024-01-30T13:26:36;12.10;99.90
16315;DHT22;8266;52.150;4.768;2024-01-30T13:29:03;12.10;99.90
16315;DHT22;8266;52.150;4.768;2024-01-30T13:31:30;12.10;99.90
16315;DHT22;8266;52.150;4.768;2024-01-30T13:33:59;12.10;99.90
16315;DHT22;8266;52.150;4.768;2024-01-30T13:36:26;12.10;99.90
16315;DHT22;8266;52.150;4.768;2024-01-30T13:38:53;12.10;99.90
16315;DHT22;8266;52.150;4.768;2024-01-30T13:41:21;12.10;99.90
16315;DHT22;8266;52.150;4.768;2024-01-30T13:43:48;12.00;99.90
16315;DHT22;8266;52.150;4.768;2024-01-30T13:46:15;12.00;99.90
16315;DHT22;8266;52.150;4.768;2024-01-30T13:48:42;12.00;99.90
16315;DHT22;8266;52.150;4.768;2024-01-30T13:51:11;12.00;99.90
16315;DHT22;8266;52.150;4.768;2024-01-30T13:53:38;11.90;99.90
16315;DHT22;8266;52.150;4.768;2024-01-30T13:56:06;11.90;99.90
16315;DHT22;8266;52.150;4.768;2024-01-30T13:58:33;11.90;99.90
16315;DHT22;8266;52.150;4.768;2024-01-30T14:01:01;11.90;99.90
16315;DHT22;8266;52.150;4.768;2024-01-30T14:03:29;11.90;99.90
16315;DHT22;8266;52.150;4.768;2024-01-30T14:05:56;11.80;99.90
16315;DHT22;8266;52.150;4.768;2024-01-30T14:08:24;11.90;99.90
16315;DHT22;8266;52.150;4.768;2024-01-30T14:10:53;11.90;99.90
16315;DHT22;8266;52.150;4.768;2024-01-30T14:13:21;11.80;99.90
16315;DHT22;8266;52.150;4.768;2024-01-30T14:15:51;11.80;99.90
16315;DHT22;8266;52.150;4.768;2024-01-30T14:18:18;11.80;99.90
16315;DHT22;8266;52.150;4.768;2024-01-30T14:20:45;11.80;99.90
16315;DHT22;8266;52.150;4.768;2024-01-30T14:23:12;11.80;99.90
16315;DHT22;8266;52.150;4.768;2024-01-30T14:25:41;11.80;99.90
16315;DHT22;8266;52.150;4.768;2024-01-30T14:28:08;11.80;99.90
16315;DHT22;8266;52.150;4.768;2024-01-30T14:30:35;11.70;99.90
16315;DHT22;8266;52.150;4.768;2024-01-30T14:33:03;11.70;99.90
16315;DHT22;8266;52.150;4.768;2024-01-30T14:35:30;11.70;99.90
16315;DHT22;8266;52.150;4.768;2024-01-30T14:37:57;11.70;99.90
16315;DHT22;8266;52.150;4.768;2024-01-30T14:40:24;11.70;99.90
16315;DHT22;8266;52.150;4.768;2024-01-30T14:42:53;11.70;99.90
16315;DHT22;8266;52.150;4.768;2024-01-30T14:45:20;11.70;99.90
16315;DHT22;8266;52.150;4.768;2024-01-30T14:47:48;11.70;99.90
16315;DHT22;8266;52.150;4.768;2024-01-30T14:50:16;11.70;99.90
16315;DHT22;8266;52.150;4.768;2024-01-30T14:52:43;11.70;99.90
16315;DHT22;8266;52.150;4.768;2024-01-30T14:55:10;11.70;99.90
16315;DHT22;8266;52.150;4.768;2024-01-30T14:57:37;11.70;99.90
16315;DHT22;8266;52.150;4.768;2024-01-30T15:00:10;11.70;99.90
16315;DHT22;8266;52.150;4.768;2024-01-30T15:02:37;11.70;99.90
16315;DHT22;8266;52.150;4.768;2024-01-30T15:05:04;11.70;99.90
16315;DHT22;8266;52.150;4.768;2024-01-30T15:07:33;11.70;99.90
16315;DHT22;8266;52.150;4.768;2024-01-30T15:10:01;11.60;99.90
16315;DHT22;8266;52.150;4.768;2024-01-30T15:12:29;11.70;99.90
16315;DHT22;8266;52.150;4.768;2024-01-30T15:14:56;11.60;99.90
16315;DHT22;8266;52.150;4.768;2024-01-30T15:17:25;11.60;99.90
16315;DHT22;8266;52.150;4.768;2024-01-30T15:19:55;11.60;99.90
16315;DHT22;8266;52.150;4.768;2024-01-30T15:22:23;11.60;99.90
16315;DHT22;8266;52.150;4.768;2024-01-30T15:24:50;11.60;99.90
16315;DHT22;8266;52.150;4.768;2024-01-30T15:27:17;11.60;99.90
16315;DHT22;8266;52.150;4.768;2024-01-30T15:29:45;11.60;99.90
16315;DHT22;8266;52.150;4.768;2024-01-30T15:32:12;11.50;99.90
16315;DHT22;8266;52.150;4.768;2024-01-30T15:34:41;11.50;99.90
16315;DHT22;8266;52.150;4.768;2024-01-30T15:37:08;11.50;99.90
16315;DHT22;8266;52.150;4.768;2024-01-30T15:39:42;11.50;99.90
16315;DHT22;8266;52.150;4.768;2024-01-30T15:42:10;11.50;99.90
16315;DHT22;8266;52.150;4.768;2024-01-30T15:44:38;11.50;99.90
16315;DHT22;8266;52.150;4.768;2024-01-30T15:47:05;11.50;99.90